createdAt,value
2018-08-19T00:00:08.702Z,74.65
2018-08-19T00:01:18.767Z,74.85
2018-08-19T00:02:28.843Z,74.55
2018-08-19T00:03:38.931Z,74.65
2018-08-19T00:04:49.004Z,74.46
2018-08-19T00:05:58.820Z,74.36
2018-08-19T00:07:08.903Z,74.46
2018-08-19T00:08:18.989Z,74.46
2018-08-19T00:09:29.073Z,74.62
2018-08-19T00:10:39.163Z,74.65
2018-08-19T00:11:49.254Z,74.46
2018-08-19T00:12:59.327Z,74.65
2018-08-19T00:14:09.429Z,74.71
2018-08-19T00:15:19.270Z,74.62
2018-08-19T00:16:29.408Z,74.9
2018-08-19T00:17:39.490Z,74.62
2018-08-19T00:18:49.316Z,74.71
2018-08-19T00:19:59.401Z,74.71
2018-08-19T00:21:09.481Z,74.62
2018-08-19T00:22:19.610Z,74.71
2018-08-19T00:23:29.433Z,74.62
2018-08-19T00:24:39.527Z,74.42
2018-08-19T00:25:49.611Z,74.52
2018-08-19T00:26:59.427Z,74.62
2018-08-19T00:28:09.520Z,74.62
2018-08-19T00:29:19.596Z,74.52
2018-08-19T00:30:29.443Z,74.62
2018-08-19T00:31:39.270Z,74.52
2018-08-19T00:32:49.361Z,74.52
2018-08-19T00:33:59.238Z,74.42
2018-08-19T00:35:09.395Z,74.62
2018-08-19T00:36:19.237Z,74.52
2018-08-19T00:37:28.792Z,74.62
2018-08-19T00:38:38.631Z,74.81
2018-08-19T00:39:48.781Z,74.42
2018-08-19T00:40:58.593Z,74.42
2018-08-19T00:42:08.434Z,74.62
2018-08-19T00:43:18.517Z,74.81
2018-08-19T00:44:28.341Z,74.62
2018-08-19T00:45:38.443Z,74.71
2018-08-19T00:46:48.257Z,74.52
2018-08-19T00:47:58.079Z,74.52
2018-08-19T00:49:07.902Z,74.52
2018-08-19T00:50:17.989Z,74.52
2018-08-19T00:51:27.817Z,74.52
2018-08-19T00:52:37.914Z,74.42
2018-08-19T00:53:47.750Z,74.62
2018-08-19T00:54:57.828Z,74.48
2018-08-19T00:56:08.010Z,74.48
2018-08-19T00:57:18.095Z,75.06
2018-08-19T00:58:28.432Z,74.87
2018-08-19T00:59:38.502Z,75.16
2018-08-19T01:00:48.325Z,75.16
2018-08-19T01:01:58.172Z,74.58
2018-08-19T01:03:08.362Z,74.96
2018-08-19T01:04:17.915Z,74.96
2018-08-19T01:05:27.986Z,75.06
2018-08-19T01:06:37.797Z,75.06
2018-08-19T01:07:47.613Z,74.58
2018-08-19T01:08:57.691Z,74.68
2018-08-19T01:10:07.515Z,74.87
2018-08-19T01:11:17.591Z,74.58
2018-08-19T01:12:27.412Z,74.68
2018-08-19T01:13:37.488Z,74.68
2018-08-19T01:14:47.580Z,74.58
2018-08-19T01:15:57.657Z,74.68
2018-08-19T01:17:07.737Z,74.68
2018-08-19T01:18:17.820Z,74.38
2018-08-19T01:19:27.903Z,74.58
2018-08-19T01:20:38.021Z,74.64
2018-08-19T01:21:48.105Z,74.48
2018-08-19T01:22:57.927Z,74.58
2018-08-19T01:24:08.109Z,74.38
2018-08-19T01:25:17.680Z,74.35
2018-08-19T01:26:27.557Z,74.44
2018-08-19T01:27:37.647Z,74.35
2018-08-19T01:28:47.753Z,74.35
2018-08-19T01:29:57.822Z,74.64
2018-08-19T01:31:08.006Z,74.64
2018-08-19T01:32:18.087Z,74.54
2018-08-19T01:33:28.178Z,74.44
2018-08-19T01:34:38.270Z,74.64
2018-08-19T01:35:48.339Z,74.16
2018-08-19T01:36:58.433Z,74.44
2018-08-19T01:38:08.525Z,73.96
2018-08-19T01:39:18.626Z,73.86
2018-08-19T01:40:28.706Z,73.86
2018-08-19T01:41:38.798Z,74.25
2018-08-19T01:42:48.879Z,74.64
2018-08-19T01:44:02.652Z,73.86
2018-08-19T01:45:12.725Z,74.64
2018-08-19T01:46:22.545Z,74.54
2018-08-19T01:47:32.885Z,74.06
2018-08-19T01:48:42.717Z,73.96
2018-08-19T01:49:52.804Z,73.9
2018-08-19T01:51:02.928Z,73.96
2018-08-19T01:52:13.016Z,74.44
2018-08-19T01:53:23.090Z,74.16
2018-08-19T01:54:33.169Z,74.64
2018-08-19T01:55:43.240Z,74.06
2018-08-19T01:56:53.316Z,73.96
2018-08-19T01:58:03.382Z,74.73
2018-08-19T01:59:13.460Z,74.64
2018-08-19T02:00:23.564Z,74.64
2018-08-19T02:01:33.705Z,74.54
2018-08-19T02:02:43.770Z,74.54
2018-08-19T02:03:53.585Z,74.44
2018-08-19T02:05:03.654Z,74.54
2018-08-19T02:06:13.500Z,74.44
2018-08-19T02:07:23.573Z,74.44
2018-08-19T02:08:33.389Z,74.58
2018-08-19T02:09:43.452Z,74.16
2018-08-19T02:10:53.267Z,73.96
2018-08-19T02:12:03.352Z,74.44
2018-08-19T02:13:13.428Z,74.58
2018-08-19T02:14:23.541Z,74.64
2018-08-19T02:15:33.675Z,74.58
2018-08-19T02:16:43.485Z,74.38
2018-08-19T02:17:53.343Z,74.25
2018-08-19T02:19:03.429Z,74.35
2018-08-19T02:20:13.555Z,74.44
2018-08-19T02:21:23.642Z,74.54
2018-08-19T02:22:33.758Z,74.64
2018-08-19T02:23:43.560Z,74.54
2018-08-19T02:24:53.658Z,74.44
2018-08-19T02:26:03.481Z,74.83
2018-08-19T02:27:13.550Z,74.83
2018-08-19T02:28:23.361Z,74.44
2018-08-19T02:29:33.435Z,74.54
2018-08-19T02:30:43.527Z,74.54
2018-08-19T02:31:53.347Z,74.64
2018-08-19T02:33:03.427Z,74.54
2018-08-19T02:34:13.519Z,74.35
2018-08-19T02:35:23.597Z,74.73
2018-08-19T02:36:33.418Z,74.64
2018-08-19T02:37:43.486Z,74.54
2018-08-19T02:38:53.295Z,74.51
2018-08-19T02:40:03.378Z,75.02
2018-08-19T02:41:13.464Z,74.54
2018-08-19T02:42:23.593Z,74.93
2018-08-19T02:43:33.423Z,74.69
2018-08-19T02:44:43.514Z,74.69
2018-08-19T02:45:53.600Z,74.69
2018-08-19T02:47:03.431Z,74.79
2018-08-19T02:48:12.987Z,74.69
2018-08-19T02:49:23.085Z,74.79
2018-08-19T02:50:32.915Z,74.41
2018-08-19T02:51:43.007Z,74.41
2018-08-19T02:52:53.069Z,75.09
2018-08-19T02:54:03.313Z,74.6
2018-08-19T02:55:13.396Z,74.51
2018-08-19T02:56:23.483Z,74.51
2018-08-19T02:57:33.581Z,74.89
2018-08-19T02:58:43.686Z,75.09
2018-08-19T02:59:53.549Z,74.41
2018-08-19T03:01:03.670Z,75.09
2018-08-19T03:02:13.751Z,75.18
2018-08-19T03:35:19.628Z,69.28
2018-08-19T03:36:29.703Z,69.76
2018-08-19T03:37:39.762Z,70.15
2018-08-19T03:38:49.889Z,70.92
2018-08-19T03:39:59.772Z,71.88
2018-08-19T03:41:09.844Z,71.4
2018-08-19T03:42:19.648Z,72.65
2018-08-19T03:43:29.782Z,72.59
2018-08-19T03:44:39.889Z,73.65
2018-08-19T03:45:49.971Z,73.16
2018-08-19T03:47:00.043Z,73.84
2018-08-19T03:48:09.869Z,73.46
2018-08-19T03:49:20.027Z,73.3
2018-08-19T03:50:30.113Z,73.88
2018-08-19T03:51:39.920Z,73.88
2018-08-19T03:52:50.000Z,74.1
2018-08-19T03:54:00.093Z,74.01
2018-08-19T03:55:09.956Z,74.01
2018-08-19T03:56:20.031Z,74.1
2018-08-19T03:57:30.120Z,74.01
2018-08-19T03:58:40.186Z,74.01
2018-08-19T03:59:50.269Z,73.82
2018-08-19T04:01:00.886Z,74.05
2018-08-19T04:02:10.963Z,74.24
2018-08-19T04:03:21.047Z,73.95
2018-08-19T04:04:31.139Z,73.85
2018-08-19T04:05:41.217Z,74.05
2018-08-19T04:06:51.286Z,74.05
2018-08-19T04:08:01.360Z,73.85
2018-08-19T04:09:11.436Z,74.08
2018-08-19T04:10:21.513Z,73.89
2018-08-19T04:11:31.602Z,74.08
2018-08-19T04:12:41.674Z,73.89
2018-08-19T04:13:51.754Z,73.99
2018-08-19T04:15:01.831Z,74.27
2018-08-19T04:16:11.916Z,74.18
2018-08-19T04:17:22.005Z,74.31
2018-08-19T04:18:31.825Z,74.41
2018-08-19T04:19:41.904Z,74.41
2018-08-19T04:20:52.011Z,74.12
2018-08-19T04:22:02.085Z,74.21
2018-08-19T04:23:12.167Z,74.02
2018-08-19T04:24:22.280Z,74.02
2018-08-19T04:25:32.361Z,73.63
2018-08-19T04:26:42.439Z,74.12
2018-08-19T04:27:52.262Z,73.83
2018-08-19T04:29:02.071Z,73.63
2018-08-19T04:30:11.635Z,73.83
2018-08-19T04:31:21.483Z,73.63
2018-08-19T04:32:31.320Z,73.63
2018-08-19T04:33:41.410Z,73.73
2018-08-19T04:34:51.254Z,73.35
2018-08-19T04:36:01.341Z,73.63
2018-08-19T04:37:10.906Z,73.44
2018-08-19T04:38:21.012Z,73.38
2018-08-19T04:39:31.094Z,73.48
2018-08-19T04:40:41.208Z,73.96
2018-08-19T04:41:51.311Z,73.48
2018-08-19T04:43:01.412Z,73.67
2018-08-19T04:44:11.482Z,73.58
2018-08-19T04:45:21.563Z,73.96
2018-08-19T04:46:31.655Z,73.96
2018-08-19T04:47:41.219Z,73.96
2018-08-19T04:48:50.773Z,74.06
2018-08-19T04:50:00.629Z,73.86
2018-08-19T04:51:10.716Z,74.16
2018-08-19T04:52:20.789Z,73.96
2018-08-19T04:53:30.934Z,73.86
2018-08-19T04:54:40.758Z,73.42
2018-08-19T04:55:50.840Z,74.38
2018-08-19T04:57:00.932Z,73.9
2018-08-19T04:58:11.015Z,74
2018-08-19T04:59:20.883Z,74
2018-08-19T05:00:30.966Z,73.32
2018-08-19T05:01:41.111Z,73.61
2018-08-19T05:02:51.196Z,73.61
2018-08-19T05:04:01.269Z,73.03
2018-08-19T05:05:11.094Z,73.71
2018-08-19T05:06:21.163Z,73.61
2018-08-19T05:07:30.970Z,73.32
2018-08-19T05:08:40.795Z,73.22
2018-08-19T05:09:50.921Z,73.26
2018-08-19T05:11:01.011Z,73.16
2018-08-19T05:12:11.137Z,73.26
2018-08-19T05:13:21.237Z,73.26
2018-08-19T05:14:31.061Z,73.55
2018-08-19T05:15:41.232Z,73.26
2018-08-19T05:16:51.109Z,73.55
2018-08-19T05:18:00.938Z,73.65
2018-08-19T05:19:11.012Z,73.16
2018-08-19T05:20:20.830Z,73.55
2018-08-19T05:21:30.916Z,73.1
2018-08-19T05:22:41.352Z,73.1
2018-08-19T05:23:51.515Z,73.01
2018-08-19T05:25:01.347Z,72.91
2018-08-19T05:26:11.438Z,72.72
2018-08-19T05:27:21.243Z,72.85
2018-08-19T05:28:31.553Z,72.95
2018-08-19T05:29:41.607Z,73.04
2018-08-19T05:30:51.683Z,73.14
2018-08-19T05:32:01.488Z,73.33
2018-08-19T05:33:11.569Z,72.95
2018-08-19T05:34:21.445Z,72.66
2018-08-19T05:35:31.528Z,72.69
2018-08-19T05:36:41.366Z,72.6
2018-08-19T05:37:51.180Z,71.92
2018-08-19T05:39:01.191Z,71.92
2018-08-19T05:40:11.110Z,72.21
2018-08-19T05:41:20.918Z,72.5
2018-08-19T05:42:31.018Z,72.53
2018-08-19T05:43:40.894Z,72.63
2018-08-19T05:44:50.970Z,72.92
2018-08-19T05:46:01.067Z,71.95
2018-08-19T05:47:10.856Z,72.34
2018-08-19T05:48:21.256Z,71.99
2018-08-19T05:49:31.372Z,71.44
2018-08-19T05:50:41.443Z,71.64
2018-08-19T05:51:51.576Z,71.25
2018-08-19T05:53:01.661Z,72.02
2018-08-19T05:54:12.001Z,72.02
2018-08-19T05:55:22.099Z,71.83
2018-08-19T05:56:32.352Z,71.86
2018-08-19T05:57:42.184Z,71.7
2018-08-19T05:58:52.259Z,72.49
2018-08-19T06:00:02.356Z,72.45
2018-08-19T06:01:12.702Z,72.67
2018-08-19T06:02:23.103Z,72.09
2018-08-19T06:03:33.193Z,72.49
2018-08-19T06:04:43.273Z,71.12
2018-08-19T06:05:53.362Z,70.81
2018-08-19T06:07:03.940Z,70.94
2018-08-19T06:08:14.041Z,71.13
2018-08-19T06:09:24.118Z,71.52
2018-08-19T06:10:34.209Z,72.07
2018-08-19T06:11:44.292Z,72.75
2018-08-19T06:12:54.363Z,72.36
2018-08-19T06:14:04.472Z,72.55
2018-08-19T06:15:14.561Z,72.65
2018-08-19T06:16:24.372Z,72.55
2018-08-19T06:17:34.474Z,72.45
2018-08-19T06:18:44.540Z,72.55
2018-08-19T06:19:54.633Z,72.45
2018-08-19T06:21:04.468Z,72.55
2018-08-19T06:22:14.544Z,72.36
2018-08-19T06:23:24.623Z,72.39
2018-08-19T06:24:34.859Z,72.49
2018-08-19T06:25:44.863Z,72.49
2018-08-19T06:26:54.952Z,72.39
2018-08-19T06:28:05.024Z,72.59
2018-08-19T06:29:15.138Z,72.14
2018-08-19T06:30:25.273Z,72.04
2018-08-19T06:31:35.355Z,72.43
2018-08-19T06:32:45.435Z,72.24
2018-08-19T06:33:55.513Z,72.14
2018-08-19T06:35:05.968Z,72.37
2018-08-19T06:36:16.318Z,72.37
2018-08-19T06:37:26.174Z,72.37
2018-08-19T06:38:36.269Z,71.98
2018-08-19T06:39:46.082Z,71.92
2018-08-19T06:40:56.175Z,71.82
2018-08-19T06:42:06.045Z,71.72
2018-08-19T06:43:15.960Z,71.92
2018-08-19T06:44:26.335Z,72.41
2018-08-19T06:45:36.166Z,72.41
2018-08-19T06:46:45.741Z,71.33
2018-08-19T06:47:55.817Z,71.95
2018-08-19T06:49:06.104Z,71.56
2018-08-19T06:50:16.190Z,71.56
2018-08-19T06:51:26.301Z,71.47
2018-08-19T06:52:36.379Z,71.66
2018-08-19T06:53:46.479Z,71.76
2018-08-19T06:54:56.562Z,71.86
2018-08-19T06:56:06.401Z,72.34
2018-08-19T06:57:16.484Z,71.95
2018-08-19T06:58:26.593Z,72.44
2018-08-19T06:59:36.165Z,72.34
2018-08-19T07:00:46.259Z,72.44
2018-08-19T07:01:56.344Z,72.34
2018-08-19T07:03:06.442Z,72.15
2018-08-19T07:04:16.739Z,72.34
2018-08-19T07:05:26.834Z,71.66
2018-08-19T07:06:36.942Z,71.5
2018-08-19T07:07:47.015Z,71.47
2018-08-19T07:08:56.835Z,71.5
2018-08-19T07:10:06.928Z,71.7
2018-08-19T07:11:17.011Z,71.41
2018-08-19T07:12:26.840Z,71.7
2018-08-19T07:13:37.145Z,71.5
2018-08-19T07:14:48.304Z,71.7
2018-08-19T07:15:58.123Z,71.25
2018-08-19T07:17:08.192Z,71.15
2018-08-19T07:18:18.028Z,71.05
2018-08-19T07:19:28.164Z,71.34
2018-08-19T07:20:38.244Z,71.28
2018-08-19T07:21:48.363Z,70.98
2018-08-19T07:22:58.467Z,71.08
2018-08-19T07:24:08.544Z,71.12
2018-08-19T07:25:18.626Z,70.92
2018-08-19T07:26:28.730Z,70.04
2018-08-19T07:27:38.551Z,70.47
2018-08-19T07:28:48.663Z,70.57
2018-08-19T07:29:58.771Z,70.02
2018-08-19T07:31:08.888Z,70.12
2018-08-19T07:32:18.959Z,69.56
2018-08-19T07:33:28.529Z,69.89
2018-08-19T07:34:38.369Z,69.4
2018-08-19T07:35:48.466Z,68.75
2018-08-19T07:36:58.362Z,69.04
2018-08-19T07:38:08.252Z,69.27
2018-08-19T07:39:18.349Z,69.18
2018-08-19T07:40:28.440Z,69.4
2018-08-19T07:41:38.014Z,69.31
2018-08-19T07:42:47.845Z,69.31
2018-08-19T07:43:57.838Z,69.34
2018-08-19T07:45:07.825Z,68.95
2018-08-19T07:46:17.914Z,69.05
2018-08-19T07:47:28.048Z,68.88
2018-08-19T07:48:37.875Z,68.79
2018-08-19T07:49:48.018Z,69.02
2018-08-19T07:50:57.843Z,68.62
2018-08-19T07:52:08.557Z,68.66
2018-08-19T07:53:18.675Z,69.05
2018-08-19T07:54:28.753Z,68.95
2018-08-19T07:55:38.913Z,68.98
2018-08-19T07:56:49.004Z,68.79
2018-08-19T07:57:59.089Z,68.59
2018-08-19T07:59:09.223Z,69.02
2018-08-19T08:00:19.312Z,68.92
2018-08-19T08:01:29.414Z,69.02
2018-08-19T08:02:39.431Z,68.92
2018-08-19T08:03:49.530Z,68.92
2018-08-19T08:04:59.633Z,68.82
2018-08-19T08:06:09.721Z,69.05
2018-08-19T08:07:19.835Z,68.85
2018-08-19T08:08:29.668Z,68.66
2018-08-19T08:09:39.759Z,69.15
2018-08-19T08:10:49.976Z,68.79
2018-08-19T08:12:00.345Z,68.99
2018-08-19T08:13:09.909Z,69.18
2018-08-19T08:14:20.000Z,68.69
2018-08-19T08:15:29.835Z,68.69
2018-08-19T08:16:39.917Z,68.92
2018-08-19T08:17:50.014Z,68.92
2018-08-19T08:19:00.124Z,69.12
2018-08-19T08:20:10.215Z,68.63
2018-08-19T08:21:20.597Z,68.73
2018-08-19T08:22:31.225Z,69.12
2018-08-19T08:23:41.312Z,69.51
2018-08-19T08:24:51.405Z,68.53
2018-08-19T08:26:01.472Z,68.63
2018-08-19T08:27:11.313Z,68.82
2018-08-19T08:28:21.430Z,69.32
2018-08-19T08:29:31.569Z,68.53
2018-08-19T08:30:41.473Z,68.92
2018-08-19T08:31:51.569Z,68.73
2018-08-19T08:33:01.427Z,69.15
2018-08-19T08:34:11.657Z,69.35
2018-08-19T08:35:21.949Z,69.74
2018-08-19T08:36:32.136Z,69.54
2018-08-19T08:37:41.720Z,69.51
2018-08-19T08:38:51.817Z,70.36
2018-08-19T08:40:01.959Z,70.17
2018-08-19T08:41:12.057Z,70.13
2018-08-19T08:42:21.950Z,70.23
2018-08-19T08:43:32.442Z,70.53
2018-08-19T08:44:42.319Z,69.93
2018-08-19T08:45:53.107Z,70.07
2018-08-19T08:47:03.047Z,70.13
2018-08-19T08:48:13.210Z,70.53
2018-08-19T08:49:23.314Z,70.98
2018-08-19T08:50:33.406Z,70.75
2018-08-19T08:51:43.007Z,71.64
2018-08-19T08:52:53.108Z,71.11
2018-08-19T08:54:03.345Z,71.11
2018-08-19T08:55:13.458Z,71.31
2018-08-19T08:56:23.614Z,71.01
2018-08-19T08:57:34.130Z,70.42
2018-08-19T08:58:44.264Z,70.72
2018-08-19T08:59:54.170Z,70.52
2018-08-19T09:01:04.290Z,71.37
2018-08-19T09:02:14.427Z,71.27
2018-08-19T09:03:24.626Z,71.33
2018-08-19T09:04:34.744Z,71.37
2018-08-19T09:05:44.893Z,70.68
2018-08-19T09:06:54.976Z,70.68
2018-08-19T09:08:04.811Z,70.59
2018-08-19T09:09:14.921Z,71.11
2018-08-19T09:10:25.020Z,71.21
2018-08-19T09:11:35.161Z,70.91
2018-08-19T09:12:44.739Z,70.91
2018-08-19T09:13:55.075Z,71.11
2018-08-19T09:15:05.612Z,70.91
2018-08-19T09:16:15.734Z,71.01
2018-08-19T09:17:25.902Z,70.52
2018-08-19T09:18:35.985Z,70.65
2018-08-19T09:19:46.085Z,70.36
2018-08-19T09:20:55.912Z,70.46
2018-08-19T09:22:06.103Z,70.56
2018-08-19T09:23:16.623Z,70.56
2018-08-19T09:24:26.881Z,70.56
2018-08-19T09:25:36.761Z,70.75
2018-08-19T09:26:46.862Z,70.85
2018-08-19T09:27:56.961Z,71.04
2018-08-19T09:29:06.824Z,70.65
2018-08-19T09:30:16.955Z,70.95
2018-08-19T09:31:27.080Z,70.95
2018-08-19T09:32:36.913Z,70.65
2018-08-19T09:33:47.040Z,70.95
2018-08-19T09:34:57.196Z,70.65
2018-08-19T09:36:07.030Z,71.14
2018-08-19T09:37:16.897Z,70.56
2018-08-19T09:38:26.752Z,71.44
2018-08-19T09:39:36.572Z,71.14
2018-08-19T09:40:46.926Z,71.31
2018-08-19T09:41:57.479Z,71.5
2018-08-19T09:43:07.579Z,71.6
2018-08-19T09:44:17.680Z,71.44
2018-08-19T09:45:27.507Z,71.5
2018-08-19T09:46:37.328Z,71.5
2018-08-19T09:47:47.653Z,71.5
2018-08-19T09:48:58.545Z,71.5
2018-08-19T09:50:08.697Z,71.31
2018-08-19T09:51:18.808Z,71.7
2018-08-19T09:52:28.900Z,71.44
2018-08-19T09:53:38.987Z,71.44
2018-08-19T09:54:49.096Z,71.44
2018-08-19T09:55:58.938Z,71.44
2018-08-19T09:57:09.023Z,71.44
2018-08-19T09:58:19.124Z,71.73
2018-08-19T09:59:29.212Z,71.53
2018-08-19T10:00:39.334Z,71.44
2018-08-19T10:01:49.442Z,71.73
2018-08-19T10:02:59.026Z,71.53
2018-08-19T10:04:09.100Z,71.44
2018-08-19T10:05:19.184Z,71.53
2018-08-19T10:06:29.017Z,71.53
2018-08-19T10:07:39.134Z,71.44
2018-08-19T10:08:49.412Z,71.53
2018-08-19T10:09:59.554Z,71.53
2018-08-19T10:11:09.389Z,71.44
2018-08-19T10:12:19.506Z,71.44
2018-08-19T10:13:29.668Z,71.24
2018-08-19T10:14:39.555Z,71.08
2018-08-19T10:15:49.183Z,71.18
2018-08-19T10:16:59.277Z,71.47
2018-08-19T10:18:09.398Z,71.28
2018-08-19T10:19:19.248Z,71.21
2018-08-19T10:20:29.073Z,71.18
2018-08-19T10:21:39.214Z,71.11
2018-08-19T10:22:49.314Z,71.41
2018-08-19T10:23:59.415Z,71.21
2018-08-19T10:25:09.236Z,71.51
2018-08-19T10:26:19.331Z,71.7
2018-08-19T10:27:29.504Z,71.05
2018-08-19T10:28:39.593Z,71.05
2018-08-19T10:29:49.685Z,70.95
2018-08-19T10:30:59.517Z,71.25
2018-08-19T10:32:09.646Z,71.64
2018-08-19T10:33:19.740Z,71.64
2018-08-19T10:34:29.851Z,70.66
2018-08-19T10:35:39.961Z,70.56
2018-08-19T10:36:50.072Z,70.79
2018-08-19T10:38:00.799Z,70.98
2018-08-19T10:39:11.092Z,70.89
2018-08-19T10:40:21.734Z,70.69
2018-08-19T10:41:31.895Z,70.98
2018-08-19T10:42:41.968Z,70.89
2018-08-19T10:43:52.058Z,70.89
2018-08-19T10:45:02.198Z,70.89
2018-08-19T10:46:12.095Z,70.79
2018-08-19T10:47:22.635Z,71.12
2018-08-19T10:48:32.751Z,71.02
2018-08-19T10:49:42.864Z,71.02
2018-08-19T10:50:52.956Z,71.35
2018-08-19T10:52:03.269Z,70.86
2018-08-19T10:53:13.396Z,70.86
2018-08-19T10:54:23.031Z,70.86
2018-08-19T10:55:32.858Z,70.89
2018-08-19T10:56:42.754Z,71.19
2018-08-19T10:57:52.845Z,71.09
2018-08-19T10:59:02.947Z,71.09
2018-08-19T11:00:13.036Z,71.39
2018-08-19T11:01:23.163Z,71.19
2018-08-19T11:02:33.308Z,70.93
2018-08-19T11:03:43.213Z,71.22
2018-08-19T11:04:53.314Z,71.32
2018-08-19T11:06:03.405Z,71.22
2018-08-19T11:07:13.503Z,71.22
2018-08-19T11:08:23.622Z,71.12
2018-08-19T11:09:33.732Z,71.36
2018-08-19T11:10:43.834Z,71.06
2018-08-19T11:11:53.939Z,70.96
2018-08-19T11:13:04.047Z,71.55
2018-08-19T11:14:14.165Z,71.55
2018-08-19T11:15:24.011Z,71.16
2018-08-19T11:16:34.121Z,71.26
2018-08-19T11:17:44.263Z,71.29
2018-08-19T11:18:54.383Z,71.19
2018-08-19T11:20:04.231Z,71.39
2018-08-19T11:21:14.327Z,71.29
2018-08-19T11:22:24.421Z,71.19
2018-08-19T11:23:34.577Z,71.19
2018-08-19T11:24:44.155Z,71.29
2018-08-19T11:25:54.250Z,71.29
2018-08-19T11:27:04.370Z,71.39
2018-08-19T11:28:14.475Z,71.49
2018-08-19T11:29:24.767Z,71.29
2018-08-19T11:30:34.893Z,71.19
2018-08-19T11:31:44.995Z,71
2018-08-19T11:32:55.090Z,71.49
2018-08-19T11:34:05.401Z,71.29
2018-08-19T11:35:15.020Z,71.39
2018-08-19T11:36:25.127Z,71.29
2018-08-19T11:37:34.951Z,71.49
2018-08-19T11:38:45.067Z,71.52
2018-08-19T11:39:55.170Z,71.19
2018-08-19T11:41:05.266Z,71.42
2018-08-19T11:42:15.365Z,71.33
2018-08-19T11:43:25.534Z,71.33
2018-08-19T11:44:35.993Z,71.42
2018-08-19T11:45:45.841Z,71.03
2018-08-19T11:46:55.917Z,71.42
2018-08-19T11:48:06.064Z,71.23
2018-08-19T11:49:16.181Z,71.03
2018-08-19T11:50:26.303Z,70.97
2018-08-19T11:51:36.412Z,70.87
2018-08-19T11:52:46.257Z,70.67
2018-08-19T11:53:56.344Z,70.28
2018-08-19T11:55:05.936Z,70.67
2018-08-19T11:56:16.180Z,70.37
2018-08-19T11:57:26.297Z,70.87
2018-08-19T11:58:36.383Z,70.77
2018-08-19T11:59:46.492Z,70.87
2018-08-19T12:00:56.440Z,71.16
2018-08-19T12:02:06.845Z,71.66
2018-08-19T12:03:17.656Z,71.66
2018-08-19T12:04:27.780Z,71.66
2018-08-19T12:05:37.906Z,71.26
2018-08-19T12:06:48.008Z,71.36
2018-08-19T12:07:58.110Z,71.46
2018-08-19T12:09:08.220Z,71.69
2018-08-19T12:10:18.390Z,71.1
2018-08-19T12:11:28.505Z,71.2
2018-08-19T12:12:38.609Z,71
2018-08-19T12:13:48.725Z,71.2
2018-08-19T12:14:58.825Z,70.94
2018-08-19T12:16:08.747Z,70.8
2018-08-19T12:17:18.861Z,70.84
2018-08-19T12:18:29.017Z,70.54
2018-08-19T12:19:39.110Z,70.44
2018-08-19T12:20:49.199Z,70.34
2018-08-19T12:21:59.356Z,70.34
2018-08-19T12:23:09.221Z,70.74
2018-08-19T12:24:19.069Z,70.54
2018-08-19T12:25:29.196Z,70.67
2018-08-19T12:26:39.015Z,70.48
2018-08-19T12:27:49.257Z,71.07
2018-08-19T12:28:59.783Z,70.87
2018-08-19T12:30:09.621Z,70.87
2018-08-19T12:31:19.450Z,70.97
2018-08-19T12:32:29.341Z,71.17
2018-08-19T12:33:39.441Z,70.97
2018-08-19T12:34:49.542Z,71.07
2018-08-19T12:35:59.701Z,70.87
2018-08-19T12:37:10.046Z,71.07
2018-08-19T12:38:20.869Z,71.07
2018-08-19T12:39:30.970Z,71.17
2018-08-19T12:40:41.063Z,71.17
2018-08-19T12:41:51.151Z,71.47
2018-08-19T12:43:01.271Z,71.26
2018-08-19T12:44:11.115Z,71.17
2018-08-19T12:45:21.216Z,71.56
2018-08-19T12:46:30.787Z,70.97
2018-08-19T12:47:40.898Z,70.81
2018-08-19T12:48:50.986Z,70.67
2018-08-19T12:50:00.817Z,70.51
2018-08-19T12:51:10.966Z,71.07
2018-08-19T12:52:21.148Z,71.07
2018-08-19T12:53:31.286Z,71.2
2018-08-19T12:54:41.366Z,71.17
2018-08-19T12:55:51.298Z,71.26
2018-08-19T12:57:01.865Z,71.47
2018-08-19T12:58:11.432Z,71.47
2018-08-19T12:59:21.527Z,71.56
2018-08-19T13:00:31.648Z,71.26
2018-08-19T13:01:41.754Z,71.26
2018-08-19T13:02:51.623Z,71.37
2018-08-19T13:04:01.720Z,71.5
2018-08-19T13:05:11.814Z,71.47
2018-08-19T13:06:21.922Z,71.3
2018-08-19T13:07:31.749Z,71.11
2018-08-19T13:08:41.616Z,71.2
2018-08-19T13:09:51.722Z,71.11
2018-08-19T13:11:01.822Z,71
2018-08-19T13:12:11.938Z,71.11
2018-08-19T13:13:21.791Z,71
2018-08-19T13:14:31.906Z,70.51
2018-08-19T13:15:41.994Z,71.04
2018-08-19T13:16:51.827Z,70.84
2018-08-19T13:18:01.997Z,70.84
2018-08-19T13:19:12.086Z,71.11
2018-08-19T13:20:21.707Z,71.3
2018-08-19T13:21:31.823Z,71
2018-08-19T13:22:42.018Z,71.5
2018-08-19T13:23:52.256Z,71.6
2018-08-19T13:25:02.079Z,71.53
2018-08-19T13:26:11.919Z,71.83
2018-08-19T13:27:21.800Z,71.44
2018-08-19T13:28:32.001Z,71.53
2018-08-19T13:29:42.440Z,71.63
2018-08-19T13:30:52.554Z,71.23
2018-08-19T13:32:02.853Z,71.63
2018-08-19T13:33:12.675Z,71.4
2018-08-19T13:34:22.800Z,71.4
2018-08-19T13:35:32.933Z,71.44
2018-08-19T13:36:43.049Z,71.6
2018-08-19T13:37:53.162Z,71.53
2018-08-19T13:39:03.254Z,71.53
2018-08-19T13:40:13.370Z,71.23
2018-08-19T13:41:23.474Z,71.53
2018-08-19T13:42:33.050Z,71.5
2018-08-19T13:43:43.216Z,71.2
2018-08-19T13:44:53.307Z,71.7
2018-08-19T13:46:03.193Z,71.5
2018-08-19T13:47:13.506Z,71.4
2018-08-19T13:48:24.225Z,71.3
2018-08-19T13:49:34.384Z,71.2
2018-08-19T13:50:44.223Z,71.17
2018-08-19T13:51:54.322Z,71.5
2018-08-19T13:53:04.168Z,71.17
2018-08-19T13:54:14.270Z,71.17
2018-08-19T13:55:24.212Z,71.2
2018-08-19T13:56:34.297Z,71.26
2018-08-19T13:57:44.135Z,71.26
2018-08-19T13:58:54.064Z,71.26
2018-08-19T14:00:04.200Z,71.26
2018-08-19T14:01:14.399Z,71.17
2018-08-19T14:02:24.492Z,71.4
2018-08-19T14:03:34.604Z,71.7
2018-08-19T14:04:44.706Z,71.7
2018-08-19T14:05:54.815Z,71.6
2018-08-19T14:07:04.956Z,71.7
2018-08-19T14:08:15.058Z,71.4
2018-08-19T14:09:24.895Z,71.7
2018-08-19T14:10:34.754Z,71.5
2018-08-19T14:11:44.886Z,71.5
2018-08-19T14:12:54.823Z,71.4
2018-08-19T14:14:04.923Z,71.2
2018-08-19T14:15:14.744Z,71.37
2018-08-19T14:16:24.867Z,71.37
2018-08-19T14:17:34.702Z,71.26
2018-08-19T14:18:44.863Z,70.97
2018-08-19T14:19:54.452Z,71.14
2018-08-19T14:21:04.574Z,71.14
2018-08-19T14:22:14.691Z,71.62
2018-08-19T14:23:24.812Z,71.14
2018-08-19T14:24:34.963Z,71.23
2018-08-19T14:25:44.817Z,71.33
2018-08-19T14:26:54.924Z,71.14
2018-08-19T14:28:04.766Z,71.33
2018-08-19T14:29:14.866Z,71.43
2018-08-19T14:30:25.189Z,71.23
2018-08-19T14:31:36.073Z,71.23
2018-08-19T14:32:46.179Z,71.43
2018-08-19T14:33:56.027Z,71.14
2018-08-19T14:35:06.149Z,71.23
2018-08-19T14:36:16.257Z,71.14
2018-08-19T14:37:26.368Z,71.33
2018-08-19T14:38:36.466Z,71.23
2018-08-19T14:39:46.561Z,71.23
2018-08-19T14:40:56.725Z,71.2
2018-08-19T14:42:06.897Z,71.23
2018-08-19T14:43:17.021Z,71.23
2018-08-19T14:44:27.117Z,71.69
2018-08-19T14:45:36.986Z,71
2018-08-19T14:46:46.840Z,71.2
2018-08-19T14:47:56.952Z,71.59
2018-08-19T14:49:06.806Z,71.43
2018-08-19T14:50:16.630Z,71.5
2018-08-19T14:51:26.755Z,71.2
2018-08-19T14:52:36.855Z,71.3
2018-08-19T14:53:47.078Z,71.79
2018-08-19T14:54:57.180Z,71.2
2018-08-19T14:56:07.302Z,71
2018-08-19T14:57:17.455Z,71.59
2018-08-19T14:58:27.564Z,71.1
2018-08-19T14:59:37.684Z,71.59
2018-08-19T15:00:47.783Z,71
2018-08-19T15:01:57.876Z,71.1
2018-08-19T15:03:08.187Z,71.1
2018-08-19T15:04:18.275Z,71
2018-08-19T15:05:28.408Z,71.1
2018-08-19T15:06:38.260Z,70.84
2018-08-19T15:07:48.377Z,71.03
2018-08-19T15:08:58.561Z,71.23
2018-08-19T15:10:08.531Z,71.23
2018-08-19T15:11:19.164Z,71.14
2018-08-19T15:12:28.996Z,71.33
2018-08-19T15:13:39.103Z,71.03
2018-08-19T15:14:49.241Z,71.03
2018-08-19T15:15:59.340Z,71.14
2018-08-19T15:17:09.177Z,71.62
2018-08-19T15:18:19.298Z,71.23
2018-08-19T15:19:29.379Z,71.14
2018-08-19T15:20:39.561Z,71.53
2018-08-19T15:21:49.399Z,71.92
2018-08-19T15:22:59.501Z,71.62
2018-08-19T15:24:09.337Z,71.83
2018-08-19T15:25:19.457Z,71.53
2018-08-19T15:26:29.570Z,71.79
2018-08-19T15:27:39.692Z,71.92
2018-08-19T15:28:49.807Z,71.89
2018-08-19T15:29:59.930Z,72.19
2018-08-19T15:31:10.035Z,72.19
2018-08-19T15:32:20.150Z,72.09
2018-08-19T15:33:32.157Z,72.34
2018-08-19T15:34:42.279Z,71.75
2018-08-19T15:35:52.116Z,71.86
2018-08-19T15:37:02.255Z,71.95
2018-08-19T15:38:12.404Z,71.66